createdAt,value
2018-06-07T11:02:48.519Z,9.60
2018-06-07T11:05:17.025Z,9.87
2018-06-07T11:07:45.467Z,11.00
2018-06-07T11:10:13.915Z,11.90
2018-06-07T11:12:42.484Z,9.23
2018-06-07T11:15:10.988Z,10.27
2018-06-07T11:17:39.490Z,11.00
2018-06-07T11:20:07.952Z,12.33
2018-06-07T11:22:36.769Z,10.37
2018-06-07T11:25:05.261Z,8.97
2018-06-07T11:27:33.727Z,9.50
2018-06-07T11:30:02.240Z,14.20
2018-06-07T11:32:30.499Z,11.80
2018-06-07T11:34:58.985Z,9.60
2018-06-07T11:37:27.122Z,9.30
2018-06-07T11:39:55.595Z,10.43
2018-06-07T11:42:24.192Z,21.27
2018-06-07T11:44:52.692Z,9.60
2018-06-07T11:47:21.144Z,9.90
2018-06-07T11:49:49.659Z,11.17
2018-06-07T11:52:18.104Z,9.77
2018-06-07T11:54:46.692Z,14.10
2018-06-07T11:57:15.107Z,10.60
2018-06-07T11:59:43.563Z,11.40
2018-06-07T12:02:12.029Z,15.50
2018-06-07T12:04:40.531Z,11.60
2018-06-07T12:07:09.055Z,10.60
2018-06-07T12:09:37.202Z,11.37
2018-06-07T12:12:05.739Z,12.63
2018-06-07T12:14:34.272Z,11.37
2018-06-07T12:17:02.716Z,13.37
2018-06-07T12:19:31.240Z,11.30
2018-06-07T12:21:59.675Z,10.40
2018-06-07T12:24:28.211Z,9.33
2018-06-07T12:26:56.639Z,9.80
2018-06-07T12:29:25.131Z,11.60
2018-06-07T12:31:53.636Z,13.00
2018-06-07T12:34:22.167Z,13.37
2018-06-07T12:36:50.575Z,10.03
2018-06-07T12:40:22.438Z,10.23
2018-06-07T12:42:50.934Z,8.67
2018-06-07T12:45:19.389Z,10.00
2018-06-07T12:47:47.875Z,9.80
2018-06-07T12:50:16.388Z,9.57
2018-06-07T12:53:48.484Z,12.93
2018-06-07T12:56:16.943Z,8.83
2018-06-07T12:58:45.449Z,8.50
2018-06-07T13:01:13.897Z,8.13
2018-06-07T13:03:42.388Z,8.17
2018-06-07T13:06:10.871Z,11.97
2018-06-07T13:08:39.355Z,12.07
2018-06-07T13:11:07.843Z,9.80
2018-06-07T13:13:36.364Z,10.20
2018-06-07T13:16:04.792Z,9.47
2018-06-07T13:18:33.302Z,11.30
2018-06-07T13:21:02.599Z,11.60
2018-06-07T13:23:31.069Z,11.40
2018-06-07T13:25:59.568Z,10.83
2018-06-07T13:28:28.208Z,11.00
2018-06-07T13:30:56.717Z,11.23
2018-06-07T13:33:25.222Z,14.43
2018-06-07T13:35:53.675Z,9.93
2018-06-07T13:38:22.222Z,10.40
2018-06-07T13:40:51.516Z,11.50
2018-06-07T13:43:20.420Z,9.93
2018-06-07T13:45:49.023Z,10.08
2018-06-07T13:48:17.547Z,11.25
2018-06-07T13:50:45.735Z,10.82
2018-06-07T13:53:14.268Z,12.07
2018-06-07T13:55:42.825Z,11.53
2018-06-07T13:58:12.631Z,10.30
2018-06-07T14:00:41.167Z,11.53
2018-06-07T14:03:09.635Z,9.68
2018-06-07T14:05:38.158Z,10.30
2018-06-07T14:08:06.357Z,10.28
2018-06-07T14:10:34.899Z,11.05
2018-06-07T14:13:03.471Z,11.50
2018-06-07T14:15:32.187Z,12.30
2018-06-07T14:18:02.049Z,10.50
2018-06-07T14:20:32.856Z,11.70
2018-06-07T14:23:01.529Z,11.15
2018-06-07T14:25:30.358Z,12.77
2018-06-07T14:27:59.117Z,12.30
2018-06-07T14:30:28.155Z,12.10
2018-06-07T14:32:56.679Z,12.30
2018-06-07T14:35:25.834Z,12.50
2018-06-07T14:37:54.415Z,14.13
2018-06-07T14:40:23.182Z,14.10
2018-06-07T14:42:51.396Z,14.43
2018-06-07T14:45:19.902Z,13.07
2018-06-07T14:47:48.382Z,14.53
2018-06-07T14:50:16.627Z,14.23
2018-06-07T14:52:45.273Z,13.47
2018-06-07T14:55:13.699Z,13.93
2018-06-07T14:57:42.290Z,18.83
2018-06-07T15:00:11.243Z,24.97
2018-06-07T15:02:39.805Z,14.47
2018-06-07T15:05:08.292Z,15.30
2018-06-07T15:07:37.776Z,16.23
2018-06-07T15:10:06.003Z,16.83
2018-06-07T15:12:34.494Z,16.63
2018-06-07T15:15:03.139Z,20.63
2018-06-07T15:17:31.755Z,17.50
2018-06-07T15:20:00.245Z,15.93
2018-06-07T15:22:28.790Z,15.37
2018-06-07T15:24:57.335Z,14.83
2018-06-07T15:27:25.914Z,15.27
2018-06-07T15:29:54.475Z,14.07
2018-06-07T15:33:47.509Z,16.03
2018-06-07T15:36:17.442Z,17.07
2018-06-07T15:38:46.024Z,15.60
2018-06-07T15:41:14.714Z,17.93
2018-06-07T15:43:43.550Z,18.10
2018-06-07T15:46:12.149Z,16.83
2018-06-07T15:48:40.640Z,10.00
2018-06-07T15:51:08.911Z,8.17
2018-06-07T15:53:37.063Z,8.67
2018-06-07T15:56:05.628Z,8.10
2018-06-07T15:58:34.239Z,6.37
2018-06-07T16:01:02.978Z,5.60
2018-06-07T16:03:31.762Z,14.77
2018-06-07T16:06:00.373Z,6.10
2018-06-07T16:08:28.988Z,6.10
2018-06-07T16:10:57.545Z,8.37
2018-06-07T16:13:26.155Z,7.30
2018-06-07T16:15:54.635Z,8.20
2018-06-07T16:18:23.277Z,8.20
2018-06-07T16:20:51.856Z,11.10
2018-06-07T16:23:20.532Z,10.67
2018-06-07T16:25:49.176Z,12.13
2018-06-07T16:28:17.709Z,10.60
2018-06-07T16:30:46.279Z,12.60
2018-06-07T16:33:14.852Z,9.40
2018-06-07T16:35:43.015Z,11.83
2018-06-07T16:38:11.188Z,11.10
2018-06-07T16:40:39.859Z,10.23
2018-06-07T16:43:08.457Z,9.97
2018-06-07T16:45:36.675Z,11.70
2018-06-07T16:48:05.512Z,12.23
2018-06-07T16:50:34.036Z,11.23
2018-06-07T16:53:02.595Z,10.00
2018-06-07T16:55:31.084Z,14.07
2018-06-07T16:57:59.405Z,10.23
2018-06-07T17:00:28.051Z,11.87
2018-06-07T17:02:56.712Z,10.03
2018-06-07T17:05:25.269Z,10.37
2018-06-07T17:07:53.822Z,9.50
2018-06-07T17:10:22.392Z,11.10
2018-06-07T17:12:51.094Z,13.20
2018-06-07T17:15:19.725Z,11.83
2018-06-07T17:17:48.279Z,11.07
2018-06-07T17:20:16.855Z,11.10
2018-06-07T17:22:45.418Z,12.00
2018-06-07T17:25:14.183Z,11.00
2018-06-07T17:27:42.392Z,10.70
2018-06-07T17:30:10.950Z,10.40
2018-06-07T17:32:39.176Z,14.97
2018-06-07T17:35:07.705Z,9.50
2018-06-07T17:37:36.397Z,8.80
2018-06-07T17:40:05.041Z,9.20
2018-06-07T17:42:33.552Z,8.40
2018-06-07T17:45:02.042Z,14.20
2018-06-07T17:47:30.311Z,8.40
2018-06-07T17:49:58.839Z,8.07
2018-06-07T17:52:27.444Z,12.10
2018-06-07T17:54:56.020Z,9.03
2018-06-07T17:57:24.543Z,9.60
2018-06-07T17:59:53.015Z,12.57
2018-06-07T18:02:21.486Z,16.90
2018-06-07T18:06:10.440Z,19.83
2018-06-07T18:08:38.943Z,15.50
2018-06-07T18:11:07.559Z,12.77
2018-06-07T18:13:35.864Z,10.63
2018-06-07T18:16:04.509Z,13.90
2018-06-07T18:18:33.116Z,13.70
2018-06-07T18:21:01.599Z,15.07
2018-06-07T18:23:30.072Z,16.67
2018-06-07T18:25:58.581Z,18.10
2018-06-07T18:28:27.194Z,18.57
2018-06-07T18:30:55.739Z,18.30
2018-06-07T18:33:24.347Z,20.20
2018-06-07T18:35:53.919Z,18.23
2018-06-07T18:38:22.368Z,23.50
2018-06-07T18:40:50.846Z,18.70
2018-06-07T18:43:19.319Z,20.17
2018-06-07T18:45:48.035Z,17.80
2018-06-07T18:48:16.245Z,18.70
2018-06-07T18:50:44.833Z,20.33
2018-06-07T18:53:13.353Z,18.73
2018-06-07T18:55:41.851Z,19.30
2018-06-07T18:58:10.595Z,18.27
2018-06-07T19:00:39.309Z,19.60
2018-06-07T19:03:07.870Z,19.50
2018-06-07T19:05:36.415Z,21.07
2018-06-07T19:08:05.026Z,18.77
2018-06-07T19:10:33.571Z,21.53
2018-06-07T19:13:01.919Z,17.43
2018-06-07T19:15:30.472Z,16.23
2018-06-07T19:17:58.971Z,16.10
2018-06-07T19:20:32.823Z,18.80
2018-06-07T19:23:01.355Z,16.47
2018-06-07T19:25:35.051Z,25.57
2018-06-07T19:28:03.590Z,15.53
2018-06-07T19:30:31.796Z,15.33
2018-06-07T19:33:05.829Z,14.37
2018-06-07T19:35:34.427Z,16.80
2018-06-07T19:38:02.946Z,13.97
2018-06-07T19:40:36.558Z,15.77
2018-06-07T19:43:04.730Z,14.00
2018-06-07T19:45:32.927Z,74.67
2018-06-07T19:48:01.431Z,13.73
2018-06-07T19:50:30.880Z,14.80
2018-06-07T19:52:59.407Z,16.13
2018-06-07T19:55:27.931Z,13.90
2018-06-07T19:57:56.455Z,14.57
2018-06-07T20:00:24.909Z,14.80
2018-06-07T20:02:53.387Z,16.10
2018-06-07T20:05:21.604Z,15.40
2018-06-07T20:07:50.132Z,16.57
2018-06-07T20:10:18.655Z,15.90
2018-06-07T20:12:46.846Z,15.23
2018-06-07T20:15:15.448Z,17.40
2018-06-07T20:17:44.040Z,20.97
2018-06-07T20:20:12.552Z,24.63
2018-06-07T20:22:41.136Z,15.30
2018-06-07T20:25:09.316Z,17.57
2018-06-07T20:27:37.807Z,15.53
2018-06-07T20:30:06.004Z,19.07
2018-06-07T20:32:34.463Z,17.00
2018-06-07T20:35:02.627Z,17.67
2018-06-07T20:37:31.107Z,19.33
2018-06-07T20:39:59.592Z,19.37
2018-06-07T20:42:28.057Z,27.20
2018-06-07T20:44:56.563Z,19.53
2018-06-07T20:47:24.998Z,20.23
2018-06-07T20:49:54.619Z,17.70
2018-06-07T20:52:23.180Z,16.03
2018-06-07T20:54:51.701Z,18.67
2018-06-07T20:57:20.188Z,18.80
2018-06-07T20:59:48.717Z,18.93
2018-06-07T21:02:17.237Z,19.93
2018-06-07T21:04:45.738Z,19.90
2018-06-07T21:07:14.208Z,20.67
2018-06-07T21:09:42.665Z,18.97
2018-06-07T21:12:11.159Z,17.97
2018-06-07T21:14:39.652Z,19.77
2018-06-07T21:17:08.124Z,19.30
2018-06-07T21:19:36.631Z,20.23
2018-06-07T21:22:05.110Z,19.77
2018-06-07T21:24:33.617Z,20.23
2018-06-07T21:27:02.107Z,21.30
2018-06-07T21:29:30.635Z,21.47
2018-06-07T21:31:59.132Z,69.00
2018-06-07T21:34:27.610Z,23.60
2018-06-07T21:36:56.081Z,30.07
2018-06-07T21:39:24.600Z,62.67
2018-06-07T21:41:52.778Z,20.53
2018-06-07T21:44:20.954Z,32.43
2018-06-07T21:46:49.475Z,25.57
2018-06-07T21:49:18.442Z,65.23
2018-06-07T21:51:47.372Z,23.70
2018-06-07T21:54:15.855Z,27.23
2018-06-07T21:56:44.331Z,25.77
2018-06-07T21:59:12.835Z,28.97
2018-06-07T22:01:41.507Z,26.40
2018-06-07T22:04:09.996Z,24.03
2018-06-07T22:06:38.521Z,25.30
2018-06-07T22:09:06.991Z,26.80
2018-06-07T22:11:35.171Z,28.40
2018-06-07T22:14:03.378Z,29.03
2018-06-07T22:16:31.940Z,30.07
2018-06-07T22:19:00.467Z,29.47
2018-06-07T22:21:28.985Z,32.20
2018-06-07T22:23:57.439Z,33.37
2018-06-07T22:26:25.910Z,34.73
2018-06-07T22:28:54.428Z,33.70
2018-06-07T22:31:22.911Z,35.80
2018-06-07T22:33:51.478Z,41.23
2018-06-07T22:36:19.939Z,41.93
2018-06-07T22:38:48.428Z,38.47
2018-06-07T22:41:17.037Z,42.47
2018-06-07T22:43:45.503Z,46.17
2018-06-07T22:46:14.063Z,49.43
2018-06-07T22:48:42.568Z,40.90
2018-06-07T22:51:11.071Z,38.90
2018-06-07T22:53:39.533Z,45.53
2018-06-07T22:56:08.182Z,42.00
2018-06-07T22:58:36.733Z,37.70
2018-06-07T23:01:04.910Z,42.97
2018-06-07T23:03:33.107Z,44.90
2018-06-07T23:06:01.550Z,38.30
2018-06-07T23:08:30.048Z,43.87
2018-06-07T23:10:58.200Z,44.70
2018-06-07T23:13:26.648Z,42.00
2018-06-07T23:15:56.459Z,37.67
2018-06-07T23:18:24.961Z,38.27
2018-06-07T23:20:53.488Z,35.73
2018-06-07T23:23:21.910Z,39.40
2018-06-07T23:25:50.429Z,43.17
2018-06-07T23:28:18.857Z,41.87
2018-06-07T23:30:47.349Z,37.17
2018-06-07T23:33:15.853Z,36.97
2018-06-07T23:35:44.335Z,41.00
2018-06-07T23:38:12.839Z,40.63
2018-06-07T23:40:41.279Z,38.50
2018-06-07T23:43:09.843Z,39.70
2018-06-07T23:45:38.532Z,47.23
2018-06-07T23:48:07.032Z,45.07
2018-06-07T23:50:35.597Z,41.47
2018-06-07T23:53:04.124Z,46.83
2018-06-07T23:57:48.183Z,45.00
